sensor_id;sensor_type;location;lat;lon;timestamp;temperature;humidity
5588;DHT22;2816;49.778;9.986;2023-11-21T00:01:21;8.20;99.90
5588;DHT22;2816;49.778;9.986;2023-11-21T00:03:48;8.20;99.90
5588;DHT22;2816;49.778;9.986;2023-11-21T00:06:15;8.30;99.90
5588;DHT22;2816;49.778;9.986;2023-11-21T00:08:42;8.30;99.90
5588;DHT22;2816;49.778;9.986;2023-11-21T00:11:09;8.30;99.90
5588;DHT22;2816;49.778;9.986;2023-11-21T00:13:37;8.30;99.90
5588;DHT22;2816;49.778;9.986;2023-11-21T00:16:05;8.30;99.90
5588;DHT22;2816;49.778;9.986;2023-11-21T00:18:33;8.30;99.90
5588;DHT22;2816;49.778;9.986;2023-11-21T00:20:59;8.30;99.90
5588;DHT22;2816;49.778;9.986;2023-11-21T00:23:26;8.30;99.90
5588;DHT22;2816;49.778;9.986;2023-11-21T00:25:53;8.30;99.90
5588;DHT22;2816;49.778;9.986;2023-11-21T00:28:20;8.30;99.90
5588;DHT22;2816;49.778;9.986;2023-11-21T00:30:49;8.40;99.90
5588;DHT22;2816;49.778;9.986;2023-11-21T00:33:16;8.40;99.90
5588;DHT22;2816;49.778;9.986;2023-11-21T00:35:43;8.40;99.90
5588;DHT22;2816;49.778;9.986;2023-11-21T00:38:09;8.40;99.90
5588;DHT22;2816;49.778;9.986;2023-11-21T00:40:36;8.30;99.90
5588;DHT22;2816;49.778;9.986;2023-11-21T00:43:03;8.30;99.90
5588;DHT22;2816;49.778;9.986;2023-11-21T00:45:31;8.30;99.90
5588;DHT22;2816;49.778;9.986;2023-11-21T00:47:59;8.30;99.90
5588;DHT22;2816;49.778;9.986;2023-11-21T00:50:26;8.30;99.90
5588;DHT22;2816;49.778;9.986;2023-11-21T00:52:53;8.30;99.90
5588;DHT22;2816;49.778;9.986;2023-11-21T00:55:20;8.30;99.90
5588;DHT22;2816;49.778;9.986;2023-11-21T00:57:46;8.30;99.90
5588;DHT22;2816;49.778;9.986;2023-11-21T01:00:14;8.30;99.90
5588;DHT22;2816;49.778;9.986;2023-11-21T01:02:43;8.30;99.90
5588;DHT22;2816;49.778;9.986;2023-11-21T01:05:11;8.40;99.90
5588;DHT22;2816;49.778;9.986;2023-11-21T01:07:38;8.30;99.90
5588;DHT22;2816;49.778;9.986;2023-11-21T01:10:06;8.30;99.90
5588;DHT22;2816;49.778;9.986;2023-11-21T01:12:34;8.30;99.90
5588;DHT22;2816;49.778;9.986;2023-11-21T01:15:01;8.30;99.90
5588;DHT22;2816;49.778;9.986;2023-11-21T01:17:28;8.30;99.90
5588;DHT22;2816;49.778;9.986;2023-11-21T01:19:55;8.30;99.90
5588;DHT22;2816;49.778;9.986;2023-11-21T01:22:24;8.30;99.90
5588;DHT22;2816;49.778;9.986;2023-11-21T01:24:51;8.30;99.90
5588;DHT22;2816;49.778;9.986;2023-11-21T01:27:19;8.30;99.90
5588;DHT22;2816;49.778;9.986;2023-11-21T01:29:45;8.30;99.90
5588;DHT22;2816;49.778;9.986;2023-11-21T01:32:11;8.30;99.90
5588;DHT22;2816;49.778;9.986;2023-11-21T01:34:38;8.30;99.90
5588;DHT22;2816;49.778;9.986;2023-11-21T01:37:05;8.20;99.90
5588;DHT22;2816;49.778;9.986;2023-11-21T01:39:34;8.30;99.90
5588;DHT22;2816;49.778;9.986;2023-11-21T01:42:01;8.20;99.90
5588;DHT22;2816;49.778;9.986;2023-11-21T01:44:27;8.20;99.90
5588;DHT22;2816;49.778;9.986;2023-11-21T01:46:55;8.20;99.90
5588;DHT22;2816;49.778;9.986;2023-11-21T01:49:23;8.20;99.90
5588;DHT22;2816;49.778;9.986;2023-11-21T01:51:51;8.20;99.90
5588;DHT22;2816;49.778;9.986;2023-11-21T01:54:19;8.30;99.90
5588;DHT22;2816;49.778;9.986;2023-11-21T01:56:48;8.30;99.90
5588;DHT22;2816;49.778;9.986;2023-11-21T01:59:18;8.30;99.90
5588;DHT22;2816;49.778;9.986;2023-11-21T02:01:46;8.30;99.90
5588;DHT22;2816;49.778;9.986;2023-11-21T02:04:14;8.30;99.90
5588;DHT22;2816;49.778;9.986;2023-11-21T02:06:41;8.30;99.90
5588;DHT22;2816;49.778;9.986;2023-11-21T02:09:08;8.20;99.90
5588;DHT22;2816;49.778;9.986;2023-11-21T02:11:35;8.20;99.90
5588;DHT22;2816;49.778;9.986;2023-11-21T02:14:06;8.30;99.90
5588;DHT22;2816;49.778;9.986;2023-11-21T02:16:34;8.30;99.90
5588;DHT22;2816;49.778;9.986;2023-11-21T02:19:02;8.20;99.90
5588;DHT22;2816;49.778;9.986;2023-11-21T02:21:32;8.20;99.90
5588;DHT22;2816;49.778;9.986;2023-11-21T02:24:01;8.30;99.90
5588;DHT22;2816;49.778;9.986;2023-11-21T02:26:28;8.20;99.90
5588;DHT22;2816;49.778;9.986;2023-11-21T02:28:54;8.20;99.90
5588;DHT22;2816;49.778;9.986;2023-11-21T02:31:23;8.20;99.90
5588;DHT22;2816;49.778;9.986;2023-11-21T02:33:50;8.10;99.90
5588;DHT22;2816;49.778;9.986;2023-11-21T02:36:18;8.10;99.90
5588;DHT22;2816;49.778;9.986;2023-11-21T02:38:47;8.00;99.90
5588;DHT22;2816;49.778;9.986;2023-11-21T02:41:16;8.00;99.90
5588;DHT22;2816;49.778;9.986;2023-11-21T02:43:42;8.00;99.90
5588;DHT22;2816;49.778;9.986;2023-11-21T02:46:10;7.90;99.90
5588;DHT22;2816;49.778;9.986;2023-11-21T02:48:36;7.90;99.90
5588;DHT22;2816;49.778;9.986;2023-11-21T02:51:04;7.90;99.90
5588;DHT22;2816;49.778;9.986;2023-11-21T02:53:30;7.90;99.90
5588;DHT22;2816;49.778;9.986;2023-11-21T02:55:57;7.90;99.90
5588;DHT22;2816;49.778;9.986;2023-11-21T02:58:25;7.90;99.90
5588;DHT22;2816;49.778;9.986;2023-11-21T03:00:52;7.80;99.90
5588;DHT22;2816;49.778;9.986;2023-11-21T03:03:19;7.80;99.90
5588;DHT22;2816;49.778;9.986;2023-11-21T03:05:48;7.80;99.90
5588;DHT22;2816;49.778;9.986;2023-11-21T03:08:14;7.80;99.90
5588;DHT22;2816;49.778;9.986;2023-11-21T03:10:41;7.70;99.90
5588;DHT22;2816;49.778;9.986;2023-11-21T03:13:08;7.70;99.90
5588;DHT22;2816;49.778;9.986;2023-11-21T03:15:38;7.70;99.90
5588;DHT22;2816;49.778;9.986;2023-11-21T03:18:04;7.70;99.90
5588;DHT22;2816;49.778;9.986;2023-11-21T03:20:31;7.70;99.90
5588;DHT22;2816;49.778;9.986;2023-11-21T03:22:58;7.70;99.90
5588;DHT22;2816;49.778;9.986;2023-11-21T03:25:26;7.60;99.90
5588;DHT22;2816;49.778;9.986;2023-11-21T03:27:53;7.60;99.90
5588;DHT22;2816;49.778;9.986;2023-11-21T03:30:20;7.60;99.90
5588;DHT22;2816;49.778;9.986;2023-11-21T03:32:50;7.60;99.90
5588;DHT22;2816;49.778;9.986;2023-11-21T03:35:17;7.60;99.90
5588;DHT22;2816;49.778;9.986;2023-11-21T03:37:46;7.60;99.90
5588;DHT22;2816;49.778;9.986;2023-11-21T03:40:13;7.60;99.90
5588;DHT22;2816;49.778;9.986;2023-11-21T03:42:41;7.70;99.90
5588;DHT22;2816;49.778;9.986;2023-11-21T03:45:09;7.70;99.90
5588;DHT22;2816;49.778;9.986;2023-11-21T03:47:38;7.70;99.90
5588;DHT22;2816;49.778;9.986;2023-11-21T03:50:07;7.70;99.90
5588;DHT22;2816;49.778;9.986;2023-11-21T03:52:35;7.70;99.90
5588;DHT22;2816;49.778;9.986;2023-11-21T03:55:02;7.70;99.90
5588;DHT22;2816;49.778;9.986;2023-11-21T03:57:29;7.70;99.90
5588;DHT22;2816;49.778;9.986;2023-11-21T03:59:56;7.70;99.90
5588;DHT22;2816;49.778;9.986;2023-11-21T04:02:23;7.70;99.90
5588;DHT22;2816;49.778;9.986;2023-11-21T04:04:51;7.70;99.90
5588;DHT22;2816;49.778;9.986;2023-11-21T04:07:19;7.70;99.90
5588;DHT22;2816;49.778;9.986;2023-11-21T04:09:47;7.60;99.90
5588;DHT22;2816;49.778;9.986;2023-11-21T04:12:14;7.60;99.90
5588;DHT22;2816;49.778;9.986;2023-11-21T04:14:41;7.60;99.90
5588;DHT22;2816;49.778;9.986;2023-11-21T04:17:08;7.60;99.90
5588;DHT22;2816;49.778;9.986;2023-11-21T04:19:35;7.60;99.90
5588;DHT22;2816;49.778;9.986;2023-11-21T04:22:01;7.60;99.90
5588;DHT22;2816;49.778;9.986;2023-11-21T04:24:31;7.60;99.90
5588;DHT22;2816;49.778;9.986;2023-11-21T04:26:57;7.60;99.90
5588;DHT22;2816;49.778;9.986;2023-11-21T04:29:24;7.60;99.90
5588;DHT22;2816;49.778;9.986;2023-11-21T04:31:51;7.60;99.90
5588;DHT22;2816;49.778;9.986;2023-11-21T04:34:18;7.50;99.90
5588;DHT22;2816;49.778;9.986;2023-11-21T04:36:45;7.60;99.90
5588;DHT22;2816;49.778;9.986;2023-11-21T04:39:12;7.60;99.90
5588;DHT22;2816;49.778;9.986;2023-11-21T04:41:42;7.60;99.90
5588;DHT22;2816;49.778;9.986;2023-11-21T04:44:09;7.60;99.90
5588;DHT22;2816;49.778;9.986;2023-11-21T04:46:35;7.60;99.90
5588;DHT22;2816;49.778;9.986;2023-11-21T04:49:02;7.60;99.90
5588;DHT22;2816;49.778;9.986;2023-11-21T04:51:30;7.70;99.90
5588;DHT22;2816;49.778;9.986;2023-11-21T04:53:57;7.70;99.90
5588;DHT22;2816;49.778;9.986;2023-11-21T04:56:24;7.70;99.90
5588;DHT22;2816;49.778;9.986;2023-11-21T04:58:53;7.70;99.90
5588;DHT22;2816;49.778;9.986;2023-11-21T05:01:21;7.70;99.90
5588;DHT22;2816;49.778;9.986;2023-11-21T05:03:48;7.70;99.90
5588;DHT22;2816;49.778;9.986;2023-11-21T05:06:15;7.70;99.90
5588;DHT22;2816;49.778;9.986;2023-11-21T05:08:42;7.70;99.90
5588;DHT22;2816;49.778;9.986;2023-11-21T05:11:09;7.70;99.90
5588;DHT22;2816;49.778;9.986;2023-11-21T05:13:36;7.60;99.90
5588;DHT22;2816;49.778;9.986;2023-11-21T05:16:06;7.60;99.90
5588;DHT22;2816;49.778;9.986;2023-11-21T05:18:33;7.60;99.90
5588;DHT22;2816;49.778;9.986;2023-11-21T05:21:00;7.60;99.90
5588;DHT22;2816;49.778;9.986;2023-11-21T05:23:27;7.60;99.90
5588;DHT22;2816;49.778;9.986;2023-11-21T05:25:54;7.60;99.90
5588;DHT22;2816;49.778;9.986;2023-11-21T05:28:22;7.60;99.90
5588;DHT22;2816;49.778;9.986;2023-11-21T05:30:49;7.60;99.90
5588;DHT22;2816;49.778;9.986;2023-11-21T05:33:17;7.60;99.90
5588;DHT22;2816;49.778;9.986;2023-11-21T05:35:44;7.60;99.90
5588;DHT22;2816;49.778;9.986;2023-11-21T05:38:11;7.60;99.90
5588;DHT22;2816;49.778;9.986;2023-11-21T05:40:38;7.60;99.90
5588;DHT22;2816;49.778;9.986;2023-11-21T05:43:06;7.60;99.90
5588;DHT22;2816;49.778;9.986;2023-11-21T05:45:33;7.60;99.90
5588;DHT22;2816;49.778;9.986;2023-11-21T05:48:00;7.60;99.90
5588;DHT22;2816;49.778;9.986;2023-11-21T05:50:29;7.60;99.90
5588;DHT22;2816;49.778;9.986;2023-11-21T05:52:56;7.60;99.90
5588;DHT22;2816;49.778;9.986;2023-11-21T05:55:25;7.60;99.90
5588;DHT22;2816;49.778;9.986;2023-11-21T05:57:52;7.60;99.90
5588;DHT22;2816;49.778;9.986;2023-11-21T06:00:20;7.60;99.90
5588;DHT22;2816;49.778;9.986;2023-11-21T06:02:48;7.60;99.90
5588;DHT22;2816;49.778;9.986;2023-11-21T06:05:17;7.60;99.90
5588;DHT22;2816;49.778;9.986;2023-11-21T06:07:46;7.70;99.90
5588;DHT22;2816;49.778;9.986;2023-11-21T06:10:13;7.70;99.90
5588;DHT22;2816;49.778;9.986;2023-11-21T06:12:40;7.70;99.90
5588;DHT22;2816;49.778;9.986;2023-11-21T06:15:09;7.70;99.90
5588;DHT22;2816;49.778;9.986;2023-11-21T06:17:39;7.70;99.90
5588;DHT22;2816;49.778;9.986;2023-11-21T06:20:07;7.70;99.90
5588;DHT22;2816;49.778;9.986;2023-11-21T06:22:36;7.70;99.90
5588;DHT22;2816;49.778;9.986;2023-11-21T06:25:05;7.70;99.90
5588;DHT22;2816;49.778;9.986;2023-11-21T06:27:33;7.70;99.90
5588;DHT22;2816;49.778;9.986;2023-11-21T06:30:04;7.60;99.90
5588;DHT22;2816;49.778;9.986;2023-11-21T06:32:32;7.70;99.90
5588;DHT22;2816;49.778;9.986;2023-11-21T06:35:00;7.70;99.90
5588;DHT22;2816;49.778;9.986;2023-11-21T06:37:27;7.70;99.90
5588;DHT22;2816;49.778;9.986;2023-11-21T06:39:54;7.70;99.90
5588;DHT22;2816;49.778;9.986;2023-11-21T06:42:23;7.70;99.90
5588;DHT22;2816;49.778;9.986;2023-11-21T06:44:51;7.70;99.90
5588;DHT22;2816;49.778;9.986;2023-11-21T06:47:19;7.70;99.90
5588;DHT22;2816;49.778;9.986;2023-11-21T06:49:46;7.70;99.90
5588;DHT22;2816;49.778;9.986;2023-11-21T06:52:14;7.70;99.90
5588;DHT22;2816;49.778;9.986;2023-11-21T06:54:41;7.70;99.90
5588;DHT22;2816;49.778;9.986;2023-11-21T06:57:08;7.70;99.90
5588;DHT22;2816;49.778;9.986;2023-11-21T06:59:37;7.70;99.90
5588;DHT22;2816;49.778;9.986;2023-11-21T07:02:04;7.70;99.90
5588;DHT22;2816;49.778;9.986;2023-11-21T07:04:32;7.70;99.90
5588;DHT22;2816;49.778;9.986;2023-11-21T07:06:59;7.70;99.90
5588;DHT22;2816;49.778;9.986;2023-11-21T07:09:25;7.70;99.90
5588;DHT22;2816;49.778;9.986;2023-11-21T07:11:53;7.70;99.90
5588;DHT22;2816;49.778;9.986;2023-11-21T07:14:20;7.70;99.90
5588;DHT22;2816;49.778;9.986;2023-11-21T07:16:48;7.70;99.90
5588;DHT22;2816;49.778;9.986;2023-11-21T07:19:17;7.70;99.90
5588;DHT22;2816;49.778;9.986;2023-11-21T07:21:45;7.80;99.90
5588;DHT22;2816;49.778;9.986;2023-11-21T07:24:12;7.80;99.90
5588;DHT22;2816;49.778;9.986;2023-11-21T07:26:39;7.80;99.90
5588;DHT22;2816;49.778;9.986;2023-11-21T07:29:06;7.80;99.90
5588;DHT22;2816;49.778;9.986;2023-11-21T07:31:33;7.80;99.90
5588;DHT22;2816;49.778;9.986;2023-11-21T07:34:02;7.80;99.90
5588;DHT22;2816;49.778;9.986;2023-11-21T07:36:29;7.80;99.90
5588;DHT22;2816;49.778;9.986;2023-11-21T07:38:56;7.80;99.90
5588;DHT22;2816;49.778;9.986;2023-11-21T07:41:22;7.80;99.90
5588;DHT22;2816;49.778;9.986;2023-11-21T07:43:49;7.80;99.90
5588;DHT22;2816;49.778;9.986;2023-11-21T07:46:16;7.80;99.90
5588;DHT22;2816;49.778;9.986;2023-11-21T07:48:43;7.80;99.90
5588;DHT22;2816;49.778;9.986;2023-11-21T07:51:13;7.80;99.90
5588;DHT22;2816;49.778;9.986;2023-11-21T07:53:40;7.90;99.90
5588;DHT22;2816;49.778;9.986;2023-11-21T07:56:09;7.90;99.90
5588;DHT22;2816;49.778;9.986;2023-11-21T07:58:36;7.90;99.90
5588;DHT22;2816;49.778;9.986;2023-11-21T08:01:04;7.90;99.90
5588;DHT22;2816;49.778;9.986;2023-11-21T08:03:31;7.90;99.90
5588;DHT22;2816;49.778;9.986;2023-11-21T08:05:58;7.90;99.90
5588;DHT22;2816;49.778;9.986;2023-11-21T08:08:26;7.90;99.90
5588;DHT22;2816;49.778;9.986;2023-11-21T08:10:53;8.00;99.90
5588;DHT22;2816;49.778;9.986;2023-11-21T08:13:23;7.90;99.90
5588;DHT22;2816;49.778;9.986;2023-11-21T08:15:50;8.00;99.90
5588;DHT22;2816;49.778;9.986;2023-11-21T08:18:16;8.00;99.90
5588;DHT22;2816;49.778;9.986;2023-11-21T08:20:44;8.00;99.90
5588;DHT22;2816;49.778;9.986;2023-11-21T08:23:14;8.00;99.90
5588;DHT22;2816;49.778;9.986;2023-11-21T08:25:43;8.00;99.90
5588;DHT22;2816;49.778;9.986;2023-11-21T08:28:11;8.00;99.90
5588;DHT22;2816;49.778;9.986;2023-11-21T08:30:38;8.00;99.90
5588;DHT22;2816;49.778;9.986;2023-11-21T08:33:05;8.10;99.90
5588;DHT22;2816;49.778;9.986;2023-11-21T08:35:32;8.10;99.90
5588;DHT22;2816;49.778;9.986;2023-11-21T08:37:59;8.00;99.90
5588;DHT22;2816;49.778;9.986;2023-11-21T08:40:26;8.00;99.90
5588;DHT22;2816;49.778;9.986;2023-11-21T08:42:54;8.00;99.90
5588;DHT22;2816;49.778;9.986;2023-11-21T08:45:21;8.00;99.90
5588;DHT22;2816;49.778;9.986;2023-11-21T08:47:48;8.10;99.90
5588;DHT22;2816;49.778;9.986;2023-11-21T08:50:15;8.10;99.90
5588;DHT22;2816;49.778;9.986;2023-11-21T08:52:44;8.10;99.90
5588;DHT22;2816;49.778;9.986;2023-11-21T08:55:11;8.10;99.90
5588;DHT22;2816;49.778;9.986;2023-11-21T08:57:40;8.10;99.90
5588;DHT22;2816;49.778;9.986;2023-11-21T09:00:09;8.10;99.90
5588;DHT22;2816;49.778;9.986;2023-11-21T09:02:37;8.10;99.90
5588;DHT22;2816;49.778;9.986;2023-11-21T09:05:07;8.20;99.90
5588;DHT22;2816;49.778;9.986;2023-11-21T09:07:35;8.20;99.90
5588;DHT22;2816;49.778;9.986;2023-11-21T09:10:02;8.20;99.90
5588;DHT22;2816;49.778;9.986;2023-11-21T09:12:29;8.20;99.90
5588;DHT22;2816;49.778;9.986;2023-11-21T09:14:58;8.20;99.90
5588;DHT22;2816;49.778;9.986;2023-11-21T09:17:26;8.20;99.90
5588;DHT22;2816;49.778;9.986;2023-11-21T09:19:53;8.20;99.90
5588;DHT22;2816;49.778;9.986;2023-11-21T09:22:20;8.20;99.90
5588;DHT22;2816;49.778;9.986;2023-11-21T09:24:46;8.30;99.90
5588;DHT22;2816;49.778;9.986;2023-11-21T09:27:14;8.30;99.90
5588;DHT22;2816;49.778;9.986;2023-11-21T09:29:40;8.30;99.90
5588;DHT22;2816;49.778;9.986;2023-11-21T09:32:08;8.30;99.90
5588;DHT22;2816;49.778;9.986;2023-11-21T09:34:39;8.40;99.90
5588;DHT22;2816;49.778;9.986;2023-11-21T09:37:07;8.40;99.90
5588;DHT22;2816;49.778;9.986;2023-11-21T09:39:37;8.40;99.90
5588;DHT22;2816;49.778;9.986;2023-11-21T09:42:10;8.40;99.90
5588;DHT22;2816;49.778;9.986;2023-11-21T09:44:45;8.50;99.90
5588;DHT22;2816;49.778;9.986;2023-11-21T09:47:15;8.50;99.90
5588;DHT22;2816;49.778;9.986;2023-11-21T09:49:47;8.50;99.90
5588;DHT22;2816;49.778;9.986;2023-11-21T09:52:21;8.50;99.90
5588;DHT22;2816;49.778;9.986;2023-11-21T09:54:51;8.60;99.90
5588;DHT22;2816;49.778;9.986;2023-11-21T09:57:19;8.60;99.90
5588;DHT22;2816;49.778;9.986;2023-11-21T09:59:47;8.60;99.90
5588;DHT22;2816;49.778;9.986;2023-11-21T10:02:17;8.60;99.90
5588;DHT22;2816;49.778;9.986;2023-11-21T10:04:47;8.60;99.90
5588;DHT22;2816;49.778;9.986;2023-11-21T10:07:17;8.70;99.90
5588;DHT22;2816;49.778;9.986;2023-11-21T10:09:47;8.70;99.90
5588;DHT22;2816;49.778;9.986;2023-11-21T10:12:16;8.70;99.90
5588;DHT22;2816;49.778;9.986;2023-11-21T10:14:43;8.70;99.90
5588;DHT22;2816;49.778;9.986;2023-11-21T10:17:15;8.80;99.90
5588;DHT22;2816;49.778;9.986;2023-11-21T10:19:47;8.80;99.90
5588;DHT22;2816;49.778;9.986;2023-11-21T10:22:15;8.80;99.90
5588;DHT22;2816;49.778;9.986;2023-11-21T10:24:43;8.90;99.90
5588;DHT22;2816;49.778;9.986;2023-11-21T10:27:10;8.90;99.90
5588;DHT22;2816;49.778;9.986;2023-11-21T10:29:36;8.90;99.90
5588;DHT22;2816;49.778;9.986;2023-11-21T10:32:05;8.90;99.90
5588;DHT22;2816;49.778;9.986;2023-11-21T10:34:32;8.90;99.90
5588;DHT22;2816;49.778;9.986;2023-11-21T10:37:11;8.90;99.90
5588;DHT22;2816;49.778;9.986;2023-11-21T10:39:38;9.00;99.90
5588;DHT22;2816;49.778;9.986;2023-11-21T10:42:08;9.00;99.90
5588;DHT22;2816;49.778;9.986;2023-11-21T10:44:35;9.00;99.90
5588;DHT22;2816;49.778;9.986;2023-11-21T10:47:03;8.90;99.90
5588;DHT22;2816;49.778;9.986;2023-11-21T10:49:30;9.00;99.90
5588;DHT22;2816;49.778;9.986;2023-11-21T10:51:57;9.00;99.90
5588;DHT22;2816;49.778;9.986;2023-11-21T10:54:26;9.10;99.90
5588;DHT22;2816;49.778;9.986;2023-11-21T10:56:56;9.00;99.90
5588;DHT22;2816;49.778;9.986;2023-11-21T10:59:26;9.00;99.90
5588;DHT22;2816;49.778;9.986;2023-11-21T11:01:57;9.00;99.90
5588;DHT22;2816;49.778;9.986;2023-11-21T11:04:27;9.00;99.90
5588;DHT22;2816;49.778;9.986;2023-11-21T11:06:56;9.00;99.90
5588;DHT22;2816;49.778;9.986;2023-11-21T11:09:25;9.00;99.90
5588;DHT22;2816;49.778;9.986;2023-11-21T11:11:53;9.00;99.90
5588;DHT22;2816;49.778;9.986;2023-11-21T11:14:19;9.00;99.90
5588;DHT22;2816;49.778;9.986;2023-11-21T11:16:53;9.10;99.90
5588;DHT22;2816;49.778;9.986;2023-11-21T11:19:20;9.10;99.90
5588;DHT22;2816;49.778;9.986;2023-11-21T11:22:08;9.20;99.90
5588;DHT22;2816;49.778;9.986;2023-11-21T11:24:53;9.20;99.90
5588;DHT22;2816;49.778;9.986;2023-11-21T11:27:33;9.20;99.90
5588;DHT22;2816;49.778;9.986;2023-11-21T11:30:09;9.20;99.90
5588;DHT22;2816;49.778;9.986;2023-11-21T11:32:47;9.20;99.90
5588;DHT22;2816;49.778;9.986;2023-11-21T11:35:22;9.30;99.90
5588;DHT22;2816;49.778;9.986;2023-11-21T11:37:50;9.30;99.90
5588;DHT22;2816;49.778;9.986;2023-11-21T11:40:19;9.30;99.90
5588;DHT22;2816;49.778;9.986;2023-11-21T11:42:56;9.30;99.90
5588;DHT22;2816;49.778;9.986;2023-11-21T11:45:31;9.30;99.90
5588;DHT22;2816;49.778;9.986;2023-11-21T11:48:00;9.40;99.90
5588;DHT22;2816;49.778;9.986;2023-11-21T11:50:27;9.40;99.90
5588;DHT22;2816;49.778;9.986;2023-11-21T11:52:55;9.30;99.90
5588;DHT22;2816;49.778;9.986;2023-11-21T11:55:39;9.40;99.90
5588;DHT22;2816;49.778;9.986;2023-11-21T11:58:06;9.40;99.90
5588;DHT22;2816;49.778;9.986;2023-11-21T12:00:34;9.40;99.90
5588;DHT22;2816;49.778;9.986;2023-11-21T12:03:04;9.40;99.90
5588;DHT22;2816;49.778;9.986;2023-11-21T12:05:34;9.40;99.90
5588;DHT22;2816;49.778;9.986;2023-11-21T12:08:05;9.40;99.90
5588;DHT22;2816;49.778;9.986;2023-11-21T12:10:36;9.50;99.90
5588;DHT22;2816;49.778;9.986;2023-11-21T12:13:06;9.50;99.90
5588;DHT22;2816;49.778;9.986;2023-11-21T12:15:34;9.50;99.90
5588;DHT22;2816;49.778;9.986;2023-11-21T12:18:01;9.50;99.90
5588;DHT22;2816;49.778;9.986;2023-11-21T12:20:30;9.50;99.90
5588;DHT22;2816;49.778;9.986;2023-11-21T12:22:59;9.60;99.90
5588;DHT22;2816;49.778;9.986;2023-11-21T12:25:27;9.60;99.90
5588;DHT22;2816;49.778;9.986;2023-11-21T12:27:55;9.60;99.90
5588;DHT22;2816;49.778;9.986;2023-11-21T12:30:26;9.70;99.90
5588;DHT22;2816;49.778;9.986;2023-11-21T12:32:58;9.80;99.90
5588;DHT22;2816;49.778;9.986;2023-11-21T12:35:27;9.90;99.90
5588;DHT22;2816;49.778;9.986;2023-11-21T12:37:55;9.90;99.90
5588;DHT22;2816;49.778;9.986;2023-11-21T12:40:23;10.00;99.90
5588;DHT22;2816;49.778;9.986;2023-11-21T12:42:53;10.00;99.90
5588;DHT22;2816;49.778;9.986;2023-11-21T12:45:21;10.20;99.90
5588;DHT22;2816;49.778;9.986;2023-11-21T12:47:54;10.20;99.90
5588;DHT22;2816;49.778;9.986;2023-11-21T12:50:23;10.20;99.90
5588;DHT22;2816;49.778;9.986;2023-11-21T12:52:57;10.20;99.90
5588;DHT22;2816;49.778;9.986;2023-11-21T12:55:24;10.20;99.90
5588;DHT22;2816;49.778;9.986;2023-11-21T12:57:53;10.30;99.90
5588;DHT22;2816;49.778;9.986;2023-11-21T13:00:28;10.30;99.90
5588;DHT22;2816;49.778;9.986;2023-11-21T13:02:59;10.50;99.90
5588;DHT22;2816;49.778;9.986;2023-11-21T13:05:30;10.50;99.90
5588;DHT22;2816;49.778;9.986;2023-11-21T13:07:58;10.50;99.90
5588;DHT22;2816;49.778;9.986;2023-11-21T13:10:29;10.50;99.90
5588;DHT22;2816;49.778;9.986;2023-11-21T13:12:57;10.50;99.90
5588;DHT22;2816;49.778;9.986;2023-11-21T13:15:25;10.40;99.90
5588;DHT22;2816;49.778;9.986;2023-11-21T13:17:53;10.40;99.90
5588;DHT22;2816;49.778;9.986;2023-11-21T13:20:23;10.40;99.90
5588;DHT22;2816;49.778;9.986;2023-11-21T13:22:52;10.50;99.90
5588;DHT22;2816;49.778;9.986;2023-11-21T13:25:22;10.60;99.90
5588;DHT22;2816;49.778;9.986;2023-11-21T13:27:53;10.50;99.90
5588;DHT22;2816;49.778;9.986;2023-11-21T13:30:20;10.60;99.90
5588;DHT22;2816;49.778;9.986;2023-11-21T13:32:52;10.60;99.90
5588;DHT22;2816;49.778;9.986;2023-11-21T13:35:24;10.50;99.90
5588;DHT22;2816;49.778;9.986;2023-11-21T13:38:04;10.50;99.90
5588;DHT22;2816;49.778;9.986;2023-11-21T13:40:32;10.50;99.90
5588;DHT22;2816;49.778;9.986;2023-11-21T13:43:00;10.40;99.90
5588;DHT22;2816;49.778;9.986;2023-11-21T13:45:30;10.40;99.90
5588;DHT22;2816;49.778;9.986;2023-11-21T13:47:57;10.30;99.90
5588;DHT22;2816;49.778;9.986;2023-11-21T13:50:26;10.30;99.90
5588;DHT22;2816;49.778;9.986;2023-11-21T13:52:58;10.30;99.90
5588;DHT22;2816;49.778;9.986;2023-11-21T13:55:28;10.30;99.90
5588;DHT22;2816;49.778;9.986;2023-11-21T13:57:55;10.20;99.90
5588;DHT22;2816;49.778;9.986;2023-11-21T14:00:22;10.20;99.90
5588;DHT22;2816;49.778;9.986;2023-11-21T14:03:06;10.20;99.90
5588;DHT22;2816;49.778;9.986;2023-11-21T14:05:43;10.20;99.90
5588;DHT22;2816;49.778;9.986;2023-11-21T14:08:12;10.20;99.90
5588;DHT22;2816;49.778;9.986;2023-11-21T14:10:42;10.10;99.90
5588;DHT22;2816;49.778;9.986;2023-11-21T14:13:12;10.10;99.90
5588;DHT22;2816;49.778;9.986;2023-11-21T14:15:40;9.80;99.90
5588;DHT22;2816;49.778;9.986;2023-11-21T14:18:11;9.80;99.90
5588;DHT22;2816;49.778;9.986;2023-11-21T14:20:44;9.60;99.90
5588;DHT22;2816;49.778;9.986;2023-11-21T14:23:11;9.50;99.90
5588;DHT22;2816;49.778;9.986;2023-11-21T14:25:38;9.50;99.90
5588;DHT22;2816;49.778;9.986;2023-11-21T14:28:07;9.40;99.90
5588;DHT22;2816;49.778;9.986;2023-11-21T14:30:37;9.40;99.90
5588;DHT22;2816;49.778;9.986;2023-11-21T14:33:05;9.40;99.90
5588;DHT22;2816;49.778;9.986;2023-11-21T14:35:33;9.30;99.90
5588;DHT22;2816;49.778;9.986;2023-11-21T14:38:02;9.30;99.90
5588;DHT22;2816;49.778;9.986;2023-11-21T14:40:30;9.30;99.90
5588;DHT22;2816;49.778;9.986;2023-11-21T14:42:59;9.20;99.90
5588;DHT22;2816;49.778;9.986;2023-11-21T14:45:26;9.20;99.90
5588;DHT22;2816;49.778;9.986;2023-11-21T14:47:54;9.20;99.90
5588;DHT22;2816;49.778;9.986;2023-11-21T14:50:31;9.20;99.90
5588;DHT22;2816;49.778;9.986;2023-11-21T14:53:14;9.20;99.90
5588;DHT22;2816;49.778;9.986;2023-11-21T14:55:41;9.20;99.90
5588;DHT22;2816;49.778;9.986;2023-11-21T14:58:21;9.20;99.90
5588;DHT22;2816;49.778;9.986;2023-11-21T15:00:56;9.20;99.90
5588;DHT22;2816;49.778;9.986;2023-11-21T15:03:24;9.20;99.90
5588;DHT22;2816;49.778;9.986;2023-11-21T15:06:09;9.20;99.90
5588;DHT22;2816;49.778;9.986;2023-11-21T15:08:54;9.20;99.90
5588;DHT22;2816;49.778;9.986;2023-11-21T15:11:43;9.10;99.90
5588;DHT22;2816;49.778;9.986;2023-11-21T15:14:09;9.10;99.90
5588;DHT22;2816;49.778;9.986;2023-11-21T15:16:40;9.00;99.90
5588;DHT22;2816;49.778;9.986;2023-11-21T15:19:12;9.00;99.90
5588;DHT22;2816;49.778;9.986;2023-11-21T15:21:43;9.00;99.90
5588;DHT22;2816;49.778;9.986;2023-11-21T15:24:13;8.90;99.90
5588;DHT22;2816;49.778;9.986;2023-11-21T15:26:39;8.90;99.90
5588;DHT22;2816;49.778;9.986;2023-11-21T15:29:06;8.90;99.90
5588;DHT22;2816;49.778;9.986;2023-11-21T15:31:33;8.80;99.90
5588;DHT22;2816;49.778;9.986;2023-11-21T15:34:01;8.90;99.90
5588;DHT22;2816;49.778;9.986;2023-11-21T15:36:30;8.90;99.90
5588;DHT22;2816;49.778;9.986;2023-11-21T15:38:57;8.80;99.90
5588;DHT22;2816;49.778;9.986;2023-11-21T15:41:26;8.80;99.90
5588;DHT22;2816;49.778;9.986;2023-11-21T15:43:53;8.80;99.90
5588;DHT22;2816;49.778;9.986;2023-11-21T15:46:20;8.80;99.90
5588;DHT22;2816;49.778;9.986;2023-11-21T15:48:47;8.80;99.90
5588;DHT22;2816;49.778;9.986;2023-11-21T15:51:17;8.80;99.90
5588;DHT22;2816;49.778;9.986;2023-11-21T15:53:44;8.70;99.90
5588;DHT22;2816;49.778;9.986;2023-11-21T15:56:11;8.70;99.90
5588;DHT22;2816;49.778;9.986;2023-11-21T15:58:40;8.70;99.90
5588;DHT22;2816;49.778;9.986;2023-11-21T16:01:08;8.60;99.90
5588;DHT22;2816;49.778;9.986;2023-11-21T16:03:35;8.60;99.90
5588;DHT22;2816;49.778;9.986;2023-11-21T16:06:02;8.70;99.90
5588;DHT22;2816;49.778;9.986;2023-11-21T16:08:30;8.70;99.90
5588;DHT22;2816;49.778;9.986;2023-11-21T16:10:57;8.60;99.90
5588;DHT22;2816;49.778;9.986;2023-11-21T16:13:25;8.70;99.90
5588;DHT22;2816;49.778;9.986;2023-11-21T16:15:53;8.70;99.90
5588;DHT22;2816;49.778;9.986;2023-11-21T16:18:20;8.70;99.90
5588;DHT22;2816;49.778;9.986;2023-11-21T16:20:49;8.60;99.90
5588;DHT22;2816;49.778;9.986;2023-11-21T16:23:16;8.60;99.90
5588;DHT22;2816;49.778;9.986;2023-11-21T16:25:43;8.60;99.90